NDF19D EDLV-EKYT
Flight info
| Callsign | NDF19D |
|---|---|
| Flight time | 1h 3m |
| Altitude | 33000 |
| Route | ERKUM1R ERKUM L179 MEVEL Y850 JUWGI Z529 RORUS DCT ATTUS DCT ETVOK DCT |
| Aircraft | A320/M-SDE3FGHIRWY/LB1 |
Departure
| Time | 2026-05-01 08:39 |
|---|---|
| Airport | Weeze (Niederrhein) Airport (EDLV) |
Arrival
| Time | 2026-05-01 09:42 |
|---|---|
| Airport | Aalborg Airport (EKYT) |
| Time | Latitude | Longitude | Altitude | Speed | Heading |
|---|---|---|---|---|---|
| 2026-05-01 08:01 | 51.59995 | 6.14868 | 113 ft | 0 kts | 89° |
| 2026-05-01 08:28 | 51.59991 | 6.14835 | 111 ft | 4 kts | 81° |
| 2026-05-01 08:29 | 51.59991 | 6.14802 | 111 ft | 4 kts | 131° |
| 2026-05-01 08:29 | 51.60011 | 6.14794 | 110 ft | 4 kts | 185° |
| 2026-05-01 08:29 | 51.60035 | 6.14796 | 111 ft | 4 kts | 208° |
| 2026-05-01 08:29 | 51.60044 | 6.14823 | 111 ft | 3 kts | 258° |
| 2026-05-01 08:30 | 51.60044 | 6.14850 | 112 ft | 2 kts | 273° |
| 2026-05-01 08:30 | 51.60044 | 6.14853 | 112 ft | 0 kts | 272° |
| 2026-05-01 08:32 | 51.60045 | 6.14836 | 112 ft | 3 kts | 272° |
| 2026-05-01 08:33 | 51.60046 | 6.14768 | 110 ft | 9 kts | 272° |
| 2026-05-01 08:33 | 51.60048 | 6.14629 | 109 ft | 14 kts | 268° |
| 2026-05-01 08:33 | 51.60049 | 6.14462 | 110 ft | 15 kts | 272° |
| 2026-05-01 08:33 | 51.60053 | 6.14294 | 111 ft | 16 kts | 272° |
| 2026-05-01 08:34 | 51.60057 | 6.14110 | 112 ft | 17 kts | 271° |
| 2026-05-01 08:34 | 51.60061 | 6.13921 | 114 ft | 17 kts | 272° |
| 2026-05-01 08:34 | 51.60065 | 6.13722 | 113 ft | 19 kts | 272° |
| 2026-05-01 08:34 | 51.60070 | 6.13495 | 112 ft | 21 kts | 272° |
| 2026-05-01 08:35 | 51.60077 | 6.13246 | 110 ft | 23 kts | 272° |
| 2026-05-01 08:35 | 51.60082 | 6.12979 | 108 ft | 23 kts | 271° |
| 2026-05-01 08:35 | 51.60087 | 6.12741 | 108 ft | 17 kts | 272° |
| 2026-05-01 08:35 | 51.60091 | 6.12574 | 109 ft | 12 kts | 271° |
| 2026-05-01 08:36 | 51.60100 | 6.12466 | 110 ft | 8 kts | 312° |
| 2026-05-01 08:36 | 51.60159 | 6.12458 | 111 ft | 9 kts | 3° |
| 2026-05-01 08:36 | 51.60223 | 6.12463 | 112 ft | 9 kts | 2° |
| 2026-05-01 08:36 | 51.60281 | 6.12481 | 113 ft | 8 kts | 53° |
| 2026-05-01 08:37 | 51.60284 | 6.12531 | 111 ft | 0 kts | 92° |
| 2026-05-01 08:39 | 51.60281 | 6.12661 | 110 ft | 38 kts | 91° |
| 2026-05-01 08:39 | 51.60263 | 6.13455 | 118 ft | 100 kts | 92° |
| 2026-05-01 08:39 | 51.60232 | 6.14834 | 134 ft | 144 kts | 96° |
| 2026-05-01 08:39 | 51.60179 | 6.16426 | 771 ft | 141 kts | 95° |
| 2026-05-01 08:40 | 51.60149 | 6.19580 | 1993 ft | 145 kts | 99° |
| 2026-05-01 08:40 | 51.60296 | 6.21329 | 2219 ft | 172 kts | 84° |
| 2026-05-01 08:40 | 51.60621 | 6.23294 | 2457 ft | 196 kts | 83° |
| 2026-05-01 08:41 | 51.61000 | 6.25528 | 2784 ft | 217 kts | 82° |
| 2026-05-01 08:41 | 51.61427 | 6.28007 | 3150 ft | 242 kts | 80° |
| 2026-05-01 08:41 | 51.61900 | 6.30697 | 3812 ft | 253 kts | 80° |
| 2026-05-01 08:41 | 51.62393 | 6.33444 | 4660 ft | 259 kts | 79° |
| 2026-05-01 08:42 | 51.62847 | 6.36267 | 5527 ft | 261 kts | 85° |
| 2026-05-01 08:42 | 51.62914 | 6.39195 | 6404 ft | 261 kts | 96° |
| 2026-05-01 08:42 | 51.62830 | 6.42102 | 7247 ft | 264 kts | 95° |
| 2026-05-01 08:42 | 51.62742 | 6.45073 | 8079 ft | 267 kts | 95° |
| 2026-05-01 08:43 | 51.62653 | 6.48076 | 8934 ft | 269 kts | 95° |
| 2026-05-01 08:43 | 51.62563 | 6.51103 | 9783 ft | 272 kts | 96° |
| 2026-05-01 08:43 | 51.62473 | 6.54129 | 10558 ft | 275 kts | 96° |
| 2026-05-01 08:43 | 51.62374 | 6.57334 | 10828 ft | 297 kts | 95° |
| 2026-05-01 08:44 | 51.62264 | 6.60789 | 10990 ft | 320 kts | 95° |
| 2026-05-01 08:44 | 51.62164 | 6.64441 | 11260 ft | 337 kts | 92° |
| 2026-05-01 08:44 | 51.62446 | 6.68258 | 11815 ft | 347 kts | 79° |
| 2026-05-01 08:44 | 51.63272 | 6.71952 | 12425 ft | 355 kts | 66° |
| 2026-05-01 08:45 | 51.64608 | 6.75304 | 13046 ft | 362 kts | 56° |
| 2026-05-01 08:45 | 51.66132 | 6.78588 | 13703 ft | 365 kts | 56° |
| 2026-05-01 08:45 | 51.67655 | 6.81887 | 14354 ft | 367 kts | 56° |
| 2026-05-01 08:45 | 51.69183 | 6.85212 | 14923 ft | 370 kts | 56° |
| 2026-05-01 08:46 | 51.70706 | 6.88531 | 15468 ft | 373 kts | 56° |
| 2026-05-01 08:46 | 51.72256 | 6.91914 | 16008 ft | 375 kts | 56° |
| 2026-05-01 08:46 | 51.73823 | 6.95330 | 16548 ft | 378 kts | 56° |
| 2026-05-01 08:46 | 51.75373 | 6.98720 | 17092 ft | 381 kts | 56° |
| 2026-05-01 08:47 | 51.76952 | 7.02182 | 17651 ft | 384 kts | 56° |
| 2026-05-01 08:47 | 51.78550 | 7.05691 | 18212 ft | 387 kts | 56° |
| 2026-05-01 08:47 | 51.80155 | 7.09217 | 18751 ft | 390 kts | 56° |
| 2026-05-01 08:47 | 51.81749 | 7.12730 | 19236 ft | 393 kts | 56° |
| 2026-05-01 08:48 | 51.83377 | 7.16322 | 19747 ft | 395 kts | 56° |
| 2026-05-01 08:48 | 51.84992 | 7.19878 | 20247 ft | 398 kts | 54° |
| 2026-05-01 08:48 | 51.86842 | 7.23258 | 20741 ft | 402 kts | 48° |
| 2026-05-01 08:48 | 51.88792 | 7.26530 | 21238 ft | 404 kts | 47° |
| 2026-05-01 08:49 | 51.90727 | 7.29785 | 21694 ft | 406 kts | 47° |
| 2026-05-01 08:49 | 51.92688 | 7.33096 | 22169 ft | 408 kts | 47° |
| 2026-05-01 08:49 | 51.94661 | 7.36438 | 22616 ft | 410 kts | 47° |
| 2026-05-01 08:49 | 51.96636 | 7.39795 | 23116 ft | 411 kts | 46° |
| 2026-05-01 08:50 | 51.98603 | 7.43145 | 23527 ft | 414 kts | 46° |
| 2026-05-01 08:50 | 52.00602 | 7.46550 | 23983 ft | 415 kts | 46° |
| 2026-05-01 08:50 | 52.02582 | 7.49923 | 24308 ft | 418 kts | 46° |
| 2026-05-01 08:50 | 52.04608 | 7.53376 | 24698 ft | 420 kts | 46° |
| 2026-05-01 08:51 | 52.06606 | 7.56785 | 25034 ft | 422 kts | 46° |
| 2026-05-01 08:51 | 52.08639 | 7.60257 | 25407 ft | 423 kts | 46° |
| 2026-05-01 08:51 | 52.10672 | 7.63730 | 25736 ft | 425 kts | 46° |
| 2026-05-01 08:51 | 52.12720 | 7.67181 | 26096 ft | 427 kts | 45° |
| 2026-05-01 08:52 | 52.14865 | 7.70545 | 26424 ft | 429 kts | 38° |
| 2026-05-01 08:52 | 52.17340 | 7.73304 | 26775 ft | 430 kts | 28° |
| 2026-05-01 08:52 | 52.20072 | 7.75344 | 27102 ft | 432 kts | 19° |
| 2026-05-01 08:52 | 52.22944 | 7.76602 | 27434 ft | 433 kts | 9° |
| 2026-05-01 08:53 | 52.25960 | 7.77183 | 27774 ft | 435 kts | 6° |
| 2026-05-01 08:53 | 52.28993 | 7.77666 | 28148 ft | 436 kts | 6° |
| 2026-05-01 08:53 | 52.31980 | 7.78147 | 28670 ft | 434 kts | 6° |
| 2026-05-01 08:53 | 52.34949 | 7.78704 | 29157 ft | 432 kts | 9° |
| 2026-05-01 08:54 | 52.37895 | 7.79728 | 29628 ft | 431 kts | 12° |
| 2026-05-01 08:54 | 52.40821 | 7.80807 | 30117 ft | 429 kts | 12° |
| 2026-05-01 08:54 | 52.43749 | 7.81895 | 30580 ft | 428 kts | 12° |
| 2026-05-01 08:54 | 52.46618 | 7.82960 | 30997 ft | 427 kts | 12° |
| 2026-05-01 08:55 | 52.49529 | 7.84037 | 31400 ft | 426 kts | 12° |
| 2026-05-01 08:55 | 52.52429 | 7.85110 | 31809 ft | 425 kts | 12° |
| 2026-05-01 08:55 | 52.55287 | 7.86169 | 32221 ft | 425 kts | 12° |
| 2026-05-01 08:55 | 52.58178 | 7.87243 | 32624 ft | 424 kts | 12° |
| 2026-05-01 08:56 | 52.61056 | 7.88314 | 33042 ft | 423 kts | 12° |
| 2026-05-01 08:56 | 52.63945 | 7.89389 | 33439 ft | 423 kts | 12° |
| 2026-05-01 08:56 | 52.66781 | 7.90445 | 33844 ft | 422 kts | 12° |
| 2026-05-01 08:56 | 52.69655 | 7.91513 | 34259 ft | 421 kts | 12° |
| 2026-05-01 08:57 | 52.72535 | 7.92583 | 34613 ft | 421 kts | 12° |
| 2026-05-01 08:57 | 52.75353 | 7.93633 | 34953 ft | 420 kts | 12° |
| 2026-05-01 08:57 | 52.78220 | 7.94704 | 35249 ft | 420 kts | 12° |
| 2026-05-01 08:57 | 52.81084 | 7.95777 | 35385 ft | 421 kts | 12° |
| 2026-05-01 08:58 | 52.86871 | 7.97959 | 35409 ft | 432 kts | 12° |
| 2026-05-01 08:58 | 52.92724 | 8.00171 | 35407 ft | 434 kts | 12° |
| 2026-05-01 08:59 | 52.98617 | 8.02401 | 35410 ft | 434 kts | 12° |
| 2026-05-01 08:59 | 53.04517 | 8.04627 | 35409 ft | 433 kts | 12° |
| 2026-05-01 09:00 | 53.10388 | 8.06858 | 35419 ft | 434 kts | 12° |
| 2026-05-01 09:00 | 53.16261 | 8.09105 | 35416 ft | 434 kts | 12° |
| 2026-05-01 09:01 | 53.22162 | 8.11353 | 35419 ft | 434 kts | 12° |
| 2026-05-01 09:01 | 53.28030 | 8.13597 | 35419 ft | 434 kts | 12° |
| 2026-05-01 09:02 | 53.32948 | 8.15484 | 35420 ft | 434 kts | 13° |
| 2026-05-01 09:02 | 53.39812 | 8.18131 | 35417 ft | 434 kts | 13° |
| 2026-05-01 09:03 | 53.45677 | 8.20395 | 35418 ft | 434 kts | 13° |
| 2026-05-01 09:03 | 53.50584 | 8.22300 | 35413 ft | 434 kts | 13° |
| 2026-05-01 09:04 | 53.56490 | 8.24590 | 35414 ft | 435 kts | 13° |
| 2026-05-01 09:04 | 53.62363 | 8.26881 | 35415 ft | 435 kts | 13° |
| 2026-05-01 09:05 | 53.68264 | 8.29198 | 35419 ft | 435 kts | 13° |
| 2026-05-01 09:05 | 53.74135 | 8.31507 | 35421 ft | 435 kts | 13° |
| 2026-05-01 09:06 | 53.80035 | 8.33819 | 35414 ft | 436 kts | 13° |
| 2026-05-01 09:06 | 53.85978 | 8.36142 | 35420 ft | 436 kts | 13° |
| 2026-05-01 09:07 | 53.91881 | 8.38467 | 35419 ft | 437 kts | 13° |
| 2026-05-01 09:07 | 53.97784 | 8.40810 | 35427 ft | 437 kts | 13° |
| 2026-05-01 09:08 | 54.03736 | 8.43180 | 35428 ft | 437 kts | 13° |
| 2026-05-01 09:08 | 54.09631 | 8.45535 | 35430 ft | 437 kts | 13° |
| 2026-05-01 09:09 | 54.15550 | 8.47910 | 35441 ft | 438 kts | 13° |
| 2026-05-01 09:09 | 54.21491 | 8.50291 | 35439 ft | 438 kts | 13° |
| 2026-05-01 09:10 | 54.27433 | 8.52675 | 35438 ft | 438 kts | 13° |
| 2026-05-01 09:10 | 54.33374 | 8.55065 | 35441 ft | 438 kts | 13° |
| 2026-05-01 09:11 | 54.39279 | 8.57458 | 35439 ft | 437 kts | 13° |
| 2026-05-01 09:11 | 54.45195 | 8.59868 | 35436 ft | 437 kts | 14° |
| 2026-05-01 09:12 | 54.51134 | 8.62289 | 35435 ft | 437 kts | 14° |
| 2026-05-01 09:12 | 54.57032 | 8.64690 | 35432 ft | 438 kts | 14° |
| 2026-05-01 09:13 | 54.62958 | 8.67113 | 35434 ft | 438 kts | 14° |
| 2026-05-01 09:13 | 54.68897 | 8.69552 | 35435 ft | 438 kts | 14° |
| 2026-05-01 09:14 | 54.74794 | 8.72002 | 35432 ft | 438 kts | 16° |
| 2026-05-01 09:14 | 54.80615 | 8.75189 | 35434 ft | 438 kts | 19° |
| 2026-05-01 09:15 | 54.86356 | 8.78624 | 35438 ft | 438 kts | 20° |
| 2026-05-01 09:15 | 54.92145 | 8.82106 | 35446 ft | 438 kts | 19° |
| 2026-05-01 09:16 | 54.97898 | 8.85509 | 35435 ft | 438 kts | 19° |
| 2026-05-01 09:17 | 55.06564 | 8.90627 | 35440 ft | 438 kts | 19° |
| 2026-05-01 09:17 | 55.15214 | 8.95778 | 35445 ft | 439 kts | 19° |
| 2026-05-01 09:18 | 55.23913 | 9.00970 | 35442 ft | 439 kts | 19° |
| 2026-05-01 09:19 | 55.32573 | 9.06153 | 35440 ft | 440 kts | 19° |
| 2026-05-01 09:20 | 55.41273 | 9.11404 | 35447 ft | 440 kts | 19° |
| 2026-05-01 09:21 | 55.52852 | 9.18435 | 35441 ft | 441 kts | 19° |
| 2026-05-01 09:21 | 55.55777 | 9.20211 | 35006 ft | 443 kts | 19° |
| 2026-05-01 09:21 | 55.61596 | 9.23752 | 33726 ft | 444 kts | 19° |
| 2026-05-01 09:22 | 55.67472 | 9.27341 | 32392 ft | 448 kts | 19° |
| 2026-05-01 09:22 | 55.73368 | 9.30964 | 31220 ft | 452 kts | 19° |
| 2026-05-01 09:23 | 55.76367 | 9.32815 | 30651 ft | 455 kts | 19° |
| 2026-05-01 09:23 | 55.82363 | 9.36510 | 29386 ft | 459 kts | 19° |
| 2026-05-01 09:24 | 55.88444 | 9.40271 | 28263 ft | 461 kts | 19° |
| 2026-05-01 09:24 | 55.91430 | 9.42124 | 27758 ft | 456 kts | 19° |
| 2026-05-01 09:24 | 55.97407 | 9.45838 | 26364 ft | 449 kts | 19° |
| 2026-05-01 09:25 | 56.03246 | 9.49483 | 25028 ft | 445 kts | 19° |
| 2026-05-01 09:25 | 56.09076 | 9.53140 | 23638 ft | 441 kts | 19° |
| 2026-05-01 09:26 | 56.11957 | 9.54945 | 22965 ft | 437 kts | 19° |
| 2026-05-01 09:26 | 56.17609 | 9.58497 | 21678 ft | 428 kts | 19° |
| 2026-05-01 09:26 | 56.20411 | 9.60265 | 21058 ft | 425 kts | 19° |
| 2026-05-01 09:27 | 56.25962 | 9.63784 | 19874 ft | 419 kts | 19° |
| 2026-05-01 09:27 | 56.28694 | 9.65565 | 19337 ft | 416 kts | 20° |
| 2026-05-01 09:27 | 56.31382 | 9.67529 | 18865 ft | 415 kts | 22° |
| 2026-05-01 09:28 | 56.34021 | 9.69612 | 18346 ft | 412 kts | 24° |
| 2026-05-01 09:28 | 56.36592 | 9.71717 | 17834 ft | 410 kts | 24° |
| 2026-05-01 09:28 | 56.39182 | 9.73845 | 17342 ft | 407 kts | 24° |
| 2026-05-01 09:28 | 56.41764 | 9.75941 | 17003 ft | 405 kts | 24° |
| 2026-05-01 09:29 | 56.46877 | 9.80029 | 15482 ft | 399 kts | 23° |
| 2026-05-01 09:29 | 56.49393 | 9.82022 | 14874 ft | 398 kts | 22° |
| 2026-05-01 09:30 | 56.54446 | 9.86008 | 13637 ft | 394 kts | 22° |
| 2026-05-01 09:30 | 56.56960 | 9.87995 | 13164 ft | 387 kts | 23° |
| 2026-05-01 09:30 | 56.61605 | 9.91703 | 12889 ft | 341 kts | 23° |
| 2026-05-01 09:31 | 56.63690 | 9.93371 | 12671 ft | 323 kts | 23° |
| 2026-05-01 09:31 | 56.65722 | 9.94998 | 12172 ft | 316 kts | 23° |
| 2026-05-01 09:31 | 56.69722 | 9.98199 | 11045 ft | 311 kts | 23° |
| 2026-05-01 09:32 | 56.71672 | 9.99763 | 10510 ft | 308 kts | 22° |
| 2026-05-01 09:32 | 56.75589 | 10.02896 | 9360 ft | 303 kts | 22° |
| 2026-05-01 09:32 | 56.77494 | 10.04432 | 8804 ft | 300 kts | 22° |
| 2026-05-01 09:33 | 56.79398 | 10.05968 | 8255 ft | 297 kts | 22° |
| 2026-05-01 09:33 | 56.81282 | 10.07485 | 7750 ft | 294 kts | 22° |
| 2026-05-01 09:33 | 56.85003 | 10.10489 | 6945 ft | 290 kts | 22° |
| 2026-05-01 09:34 | 56.86846 | 10.11980 | 6536 ft | 287 kts | 22° |
| 2026-05-01 09:34 | 56.88633 | 10.13428 | 6164 ft | 282 kts | 22° |
| 2026-05-01 09:34 | 56.92172 | 10.16297 | 5441 ft | 274 kts | 22° |
| 2026-05-01 09:35 | 56.93903 | 10.17710 | 5084 ft | 270 kts | 22° |
| 2026-05-01 09:35 | 56.97255 | 10.20450 | 4398 ft | 261 kts | 22° |
| 2026-05-01 09:35 | 56.98903 | 10.21796 | 4046 ft | 257 kts | 22° |
| 2026-05-01 09:36 | 57.00527 | 10.23119 | 3721 ft | 253 kts | 22° |
| 2026-05-01 09:36 | 57.02128 | 10.24414 | 3386 ft | 249 kts | 19° |
| 2026-05-01 09:36 | 57.03781 | 10.25172 | 3085 ft | 241 kts | 6° |
| 2026-05-01 09:36 | 57.05424 | 10.25624 | 2994 ft | 237 kts | 5° |
| 2026-05-01 09:37 | 57.07053 | 10.26041 | 2936 ft | 236 kts | 4° |
| 2026-05-01 09:37 | 57.10255 | 10.25953 | 2615 ft | 225 kts | 339° |
| 2026-05-01 09:37 | 57.11434 | 10.24324 | 2466 ft | 208 kts | 296° |
| 2026-05-01 09:38 | 57.11613 | 10.19230 | 2303 ft | 201 kts | 264° |
| 2026-05-01 09:38 | 57.11466 | 10.16698 | 2307 ft | 201 kts | 263° |
| 2026-05-01 09:38 | 57.11311 | 10.14171 | 2305 ft | 195 kts | 263° |
| 2026-05-01 09:39 | 57.11015 | 10.09386 | 2299 ft | 183 kts | 263° |
| 2026-05-01 09:39 | 57.10871 | 10.07078 | 2116 ft | 180 kts | 263° |
| 2026-05-01 09:39 | 57.10729 | 10.04794 | 1887 ft | 179 kts | 263° |
| 2026-05-01 09:40 | 57.10588 | 10.02540 | 1649 ft | 179 kts | 264° |
| 2026-05-01 09:40 | 57.10304 | 9.98010 | 1177 ft | 168 kts | 263° |
| 2026-05-01 09:40 | 57.10178 | 9.95998 | 977 ft | 147 kts | 262° |
| 2026-05-01 09:41 | 57.10065 | 9.94219 | 768 ft | 139 kts | 262° |
| 2026-05-01 09:41 | 57.09849 | 9.90799 | 400 ft | 131 kts | 261° |
| 2026-05-01 09:41 | 57.09748 | 9.89132 | 222 ft | 131 kts | 261° |
| 2026-05-01 09:42 | 57.09639 | 9.87471 | 44 ft | 129 kts | 261° |
| 2026-05-01 09:42 | 57.09547 | 9.86025 | 19 ft | 94 kts | 263° |
| 2026-05-01 09:42 | 57.09447 | 9.84486 | 19 ft | 34 kts | 263° |
| 2026-05-01 09:43 | 57.09376 | 9.84325 | 19 ft | 8 kts | 144° |
| 2026-05-01 09:43 | 57.09332 | 9.84389 | 19 ft | 6 kts | 141° |
| 2026-05-01 09:43 | 57.09294 | 9.84446 | 19 ft | 9 kts | 141° |
| 2026-05-01 09:44 | 57.09269 | 9.84705 | 19 ft | 13 kts | 82° |
| 2026-05-01 09:44 | 57.09281 | 9.84881 | 19 ft | 15 kts | 85° |
| 2026-05-01 09:44 | 57.09292 | 9.85083 | 19 ft | 17 kts | 83° |
| 2026-05-01 09:45 | 57.09306 | 9.85307 | 19 ft | 19 kts | 83° |
| 2026-05-01 09:45 | 57.09335 | 9.85746 | 19 ft | 16 kts | 83° |
| 2026-05-01 09:45 | 57.09336 | 9.85896 | 19 ft | 11 kts | 118° |
| 2026-05-01 09:46 | 57.09271 | 9.85989 | 19 ft | 13 kts | 143° |
| 2026-05-01 09:46 | 57.09193 | 9.86098 | 19 ft | 15 kts | 142° |
| 2026-05-01 09:46 | 57.09102 | 9.86225 | 19 ft | 17 kts | 142° |
| 2026-05-01 09:46 | 57.09003 | 9.86363 | 19 ft | 17 kts | 143° |
| 2026-05-01 09:47 | 57.08904 | 9.86505 | 19 ft | 19 kts | 142° |
| 2026-05-01 09:47 | 57.08796 | 9.86661 | 19 ft | 19 kts | 141° |
| 2026-05-01 09:47 | 57.08712 | 9.86786 | 19 ft | 13 kts | 139° |
| 2026-05-01 09:47 | 57.08670 | 9.86871 | 19 ft | 6 kts | 98° |
| 2026-05-01 09:48 | 57.08692 | 9.86932 | 19 ft | 5 kts | 57° |
| 2026-05-01 09:48 | 57.08704 | 9.86967 | 20 ft | 3 kts | 55° |
| 2026-05-01 09:48 | 57.08708 | 9.86977 | 19 ft | 0 kts | 55° |